createdAt,value
2017-01-09T00:00:34.753Z,47.46
2017-01-09T00:01:34.769Z,47.36
2017-01-09T00:02:34.402Z,47.65
2017-01-09T00:03:34.426Z,47.46
2017-01-09T00:04:34.855Z,47.36
2017-01-09T00:05:34.476Z,47.27
2017-01-09T00:06:34.905Z,46.98
2017-01-09T00:07:34.541Z,47.36
2017-01-09T00:08:34.958Z,47.36
2017-01-09T00:09:34.983Z,47.08
2017-01-09T00:10:35.008Z,46.98
2017-01-09T00:11:34.636Z,47.36
2017-01-09T00:12:34.669Z,47.08
2017-01-09T00:13:34.693Z,46.88
2017-01-09T00:14:35.119Z,46.88
2017-01-09T00:15:34.743Z,47.17
2017-01-09T00:16:34.776Z,47.17
2017-01-09T00:17:34.805Z,46.78
2017-01-09T00:18:35.225Z,46.69
2017-01-09T00:19:35.250Z,46.31
2017-01-09T00:20:34.878Z,46.59
2017-01-09T00:21:35.303Z,46.4
2017-01-09T00:22:34.940Z,46.4
2017-01-09T00:23:34.965Z,46.5
2017-01-09T00:24:34.990Z,46.5
2017-01-09T00:25:35.015Z,46.11
2017-01-09T00:26:35.031Z,46.21
2017-01-09T00:27:35.468Z,46.4
2017-01-09T00:28:35.492Z,46.4
2017-01-09T00:29:35.117Z,46.4
2017-01-09T00:30:35.150Z,46.59
2017-01-09T00:31:35.166Z,46.69
2017-01-09T00:32:35.591Z,46.31
2017-01-09T00:33:35.232Z,46.59
2017-01-09T00:34:35.249Z,46.21
2017-01-09T00:35:35.674Z,46.4
2017-01-09T00:36:35.302Z,46.21
2017-01-09T00:37:35.730Z,46.31
2017-01-09T00:38:35.359Z,45.92
2017-01-09T00:39:35.784Z,46.31
2017-01-09T00:40:35.409Z,45.92
2017-01-09T00:41:35.442Z,46.11
2017-01-09T00:42:35.863Z,46.01
2017-01-09T00:43:35.895Z,45.83
2017-01-09T00:44:35.915Z,45.83
2017-01-09T00:45:35.549Z,45.83
2017-01-09T00:46:35.969Z,46.01
2017-01-09T00:47:35.998Z,46.11
2017-01-09T00:48:35.623Z,46.11
2017-01-09T00:49:35.651Z,46.01
2017-01-09T00:50:35.680Z,46.04
2017-01-09T00:51:36.105Z,45.63
2017-01-09T00:52:36.126Z,45.44
2017-01-09T00:53:35.762Z,45.83
2017-01-09T00:54:36.187Z,45.56
2017-01-09T00:55:35.814Z,45.73
2017-01-09T00:56:36.237Z,45.83
2017-01-09T00:57:36.265Z,45.53
2017-01-09T00:58:35.894Z,45.83
2017-01-09T00:59:35.919Z,45.73
2017-01-09T01:00:36.341Z,45.73
2017-01-09T01:01:36.374Z,46.01
2017-01-09T01:02:36.000Z,45.53
2017-01-09T01:03:36.021Z,45.44
2017-01-09T01:04:36.045Z,45.34
2017-01-09T01:05:36.084Z,44.96
2017-01-09T01:06:36.504Z,45.15
2017-01-09T01:07:36.525Z,45.44
2017-01-09T01:08:36.165Z,45.44
2017-01-09T01:09:36.586Z,45.25
2017-01-09T01:10:36.610Z,45.15
2017-01-09T01:11:36.239Z,45.15
2017-01-09T01:12:36.268Z,45.25
2017-01-09T01:13:36.293Z,45.25
2017-01-09T01:14:36.325Z,45.34
2017-01-09T01:15:36.746Z,45.15
2017-01-09T01:16:36.775Z,45.44
2017-01-09T01:17:36.400Z,45.34
2017-01-09T01:18:36.824Z,45.44
2017-01-09T01:19:36.848Z,45.53
2017-01-09T01:20:36.485Z,44.96
2017-01-09T01:21:36.502Z,45.15
2017-01-09T01:22:36.929Z,45.15
2017-01-09T01:23:36.559Z,45.05
2017-01-09T01:24:36.580Z,44.96
2017-01-09T01:25:37.014Z,45.25
2017-01-09T01:26:37.038Z,44.76
2017-01-09T01:27:37.061Z,44.96
2017-01-09T01:28:36.695Z,44.96
2017-01-09T01:29:36.724Z,44.48
2017-01-09T01:30:36.749Z,44.38
2017-01-09T01:31:36.773Z,44.19
2017-01-09T01:32:36.811Z,44.57
2017-01-09T01:33:36.827Z,44.67
2017-01-09T01:34:37.259Z,44.48
2017-01-09T01:35:37.272Z,44.67
2017-01-09T01:36:36.916Z,44.48
2017-01-09T01:37:36.934Z,44.76
2017-01-09T01:38:37.358Z,44.67
2017-01-09T01:39:37.387Z,44.67
2017-01-09T01:40:37.012Z,44.76
2017-01-09T01:41:37.045Z,44.57
2017-01-09T01:42:37.473Z,44.57
2017-01-09T01:43:37.490Z,44.76
2017-01-09T01:44:37.130Z,44.57
2017-01-09T01:45:37.147Z,44.38
2017-01-09T01:46:37.581Z,44.38
2017-01-09T01:47:37.201Z,43.99
2017-01-09T01:48:37.245Z,44.19
2017-01-09T01:49:37.257Z,43.99
2017-01-09T01:50:37.676Z,44.19
2017-01-09T01:51:37.704Z,44.38
2017-01-09T01:52:37.732Z,44.28
2017-01-09T01:53:37.757Z,44.38
2017-01-09T01:54:37.385Z,44.19
2017-01-09T01:55:37.414Z,44.19
2017-01-09T01:56:37.847Z,44.09
2017-01-09T01:57:37.864Z,44.57
2017-01-09T01:58:37.492Z,44.48
2017-01-09T01:59:37.919Z,44.28
2017-01-09T02:00:37.942Z,44.19
2017-01-09T02:01:37.970Z,44.48
2017-01-09T02:02:37.607Z,44.48
2017-01-09T02:03:38.028Z,44.38
2017-01-09T02:04:37.656Z,44.28
2017-01-09T02:05:38.082Z,44.28
2017-01-09T02:06:37.718Z,43.99
2017-01-09T02:07:38.131Z,44.09
2017-01-09T02:08:37.771Z,43.8
2017-01-09T02:09:38.185Z,43.71
2017-01-09T02:10:37.823Z,43.9
2017-01-09T02:11:37.842Z,43.71
2017-01-09T02:12:37.862Z,43.8
2017-01-09T02:13:37.895Z,43.8
2017-01-09T02:14:37.932Z,43.61
2017-01-09T02:15:38.345Z,43.8
2017-01-09T02:16:38.373Z,43.61
2017-01-09T02:17:38.400Z,43.61
2017-01-09T02:18:38.431Z,43.8
2017-01-09T02:19:38.056Z,43.9
2017-01-09T02:20:38.084Z,43.9
2017-01-09T02:21:38.497Z,43.9
2017-01-09T02:22:38.530Z,43.9
2017-01-09T02:23:38.159Z,43.71
2017-01-09T02:24:38.196Z,43.34
2017-01-09T02:25:38.600Z,43.23
2017-01-09T02:26:38.649Z,43.51
2017-01-09T02:27:38.665Z,43.51
2017-01-09T02:28:38.306Z,43.51
2017-01-09T02:29:38.319Z,43.41
2017-01-09T02:30:38.351Z,43.51
2017-01-09T02:31:38.376Z,43.61
2017-01-09T02:32:38.805Z,43.71
2017-01-09T02:33:38.430Z,43.71
2017-01-09T02:34:38.851Z,43.51
2017-01-09T02:35:38.875Z,43.61
2017-01-09T02:36:38.508Z,43.23
2017-01-09T02:37:38.928Z,43.23
2017-01-09T02:38:38.565Z,43.41
2017-01-09T02:39:38.978Z,43.23
2017-01-09T02:40:39.011Z,43.13
2017-01-09T02:41:39.037Z,43.13
2017-01-09T02:42:39.072Z,43.13
2017-01-09T02:43:38.693Z,43.32
2017-01-09T02:44:39.126Z,43.23
2017-01-09T02:45:38.742Z,43.32
2017-01-09T02:46:39.171Z,43.23
2017-01-09T02:47:39.196Z,43.03
2017-01-09T02:48:38.833Z,43.13
2017-01-09T02:49:39.249Z,43.32
2017-01-09T02:50:39.277Z,43.13
2017-01-09T02:51:39.306Z,42.93
2017-01-09T02:52:38.939Z,43.03
2017-01-09T02:53:39.355Z,43.03
2017-01-09T02:54:38.988Z,42.93
2017-01-09T02:55:39.014Z,43.13
2017-01-09T02:56:39.437Z,43.03
2017-01-09T02:57:39.461Z,42.93
2017-01-09T02:58:39.091Z,43.13
2017-01-09T02:59:39.519Z,43.03
2017-01-09T03:00:39.536Z,42.65
2017-01-09T03:01:39.173Z,43.03
2017-01-09T03:02:39.201Z,42.46
2017-01-09T03:03:39.618Z,42.55
2017-01-09T03:04:39.650Z,43.41
2017-01-09T03:05:39.675Z,43.13
2017-01-09T03:06:39.304Z,43.13
2017-01-09T03:07:39.333Z,43.51
2017-01-09T03:08:39.757Z,42.93
2017-01-09T03:09:39.386Z,42.84
2017-01-09T03:10:39.814Z,42.93
2017-01-09T03:11:39.836Z,42.74
2017-01-09T03:12:39.468Z,43.03
2017-01-09T03:13:39.889Z,42.93
2017-01-09T03:14:39.525Z,42.93
2017-01-09T03:15:39.595Z,42.93
2017-01-09T03:16:39.574Z,43.13
2017-01-09T03:17:39.996Z,43.03
2017-01-09T03:18:40.024Z,43.23
2017-01-09T03:19:40.048Z,43.13
2017-01-09T03:20:40.077Z,43.13
2017-01-09T03:21:39.706Z,43.32
2017-01-09T03:22:39.734Z,43.23
2017-01-09T03:23:39.759Z,43.23
2017-01-09T03:24:39.784Z,43.23
2017-01-09T03:25:39.813Z,43.03
2017-01-09T03:26:40.238Z,42.65
2017-01-09T03:27:40.280Z,42.65
2017-01-09T03:28:39.887Z,42.55
2017-01-09T03:29:40.316Z,42.55
2017-01-09T03:30:40.340Z,42.74
2017-01-09T03:31:40.365Z,42.65
2017-01-09T03:32:40.398Z,42.57
2017-01-09T03:33:40.023Z,42.86
2017-01-09T03:34:40.056Z,42.46
2017-01-09T03:35:40.472Z,42.55
2017-01-09T03:36:40.509Z,42.46
2017-01-09T03:37:40.530Z,42.55
2017-01-09T03:38:40.163Z,42.65
2017-01-09T03:39:40.188Z,42.55
2017-01-09T03:40:40.208Z,42.36
2017-01-09T03:41:40.643Z,42.36
2017-01-09T03:42:40.269Z,42.16
2017-01-09T03:43:40.298Z,42.07
2017-01-09T03:44:40.714Z,42.07
2017-01-09T03:45:40.743Z,42.16
2017-01-09T03:46:40.372Z,42.16
2017-01-09T03:47:40.797Z,42.36
2017-01-09T03:48:40.421Z,42.36
2017-01-09T03:49:40.451Z,42.07
2017-01-09T03:50:40.878Z,42.46
2017-01-09T03:51:40.508Z,42.16
2017-01-09T03:52:40.928Z,42.07
2017-01-09T03:53:40.958Z,41.97
2017-01-09T03:54:40.986Z,41.97
2017-01-09T03:55:40.615Z,42.07
2017-01-09T03:56:41.036Z,42.09
2017-01-09T03:57:40.668Z,42.46
2017-01-09T03:58:40.701Z,42.26
2017-01-09T03:59:40.722Z,42.26
2017-01-09T04:00:40.747Z,42.46
2017-01-09T04:01:41.171Z,42.46
2017-01-09T04:02:41.196Z,42.16
2017-01-09T04:03:41.225Z,42.26
2017-01-09T04:04:40.853Z,42.46
2017-01-09T04:05:41.278Z,42.16
2017-01-09T04:06:41.315Z,42.07
2017-01-09T04:07:40.936Z,42.07
2017-01-09T04:08:40.964Z,42.07
2017-01-09T04:09:41.021Z,42.07
2017-01-09T04:10:41.015Z,42.16
2017-01-09T04:11:41.047Z,42.07
2017-01-09T04:12:41.460Z,42.09
2017-01-09T04:13:41.097Z,42.26
2017-01-09T04:14:41.129Z,42.36
2017-01-09T04:15:41.150Z,42.46
2017-01-09T04:16:41.571Z,42.46
2017-01-09T04:17:41.204Z,42.46
2017-01-09T04:18:41.237Z,42.36
2017-01-09T04:19:41.258Z,42.16
2017-01-09T04:20:41.679Z,41.78
2017-01-09T04:21:41.709Z,41.99
2017-01-09T04:22:41.347Z,41.88
2017-01-09T04:23:41.364Z,41.88
2017-01-09T04:24:41.793Z,41.68
2017-01-09T04:25:41.816Z,42.07
2017-01-09T04:26:41.838Z,42.07
2017-01-09T04:27:41.472Z,41.88
2017-01-09T04:28:41.900Z,42.16
2017-01-09T04:29:41.525Z,42.07
2017-01-09T04:30:41.549Z,42.07
2017-01-09T04:31:41.575Z,42.07
2017-01-09T04:32:42.000Z,42.07
2017-01-09T04:33:42.028Z,41.88
2017-01-09T04:34:41.661Z,41.97
2017-01-09T04:35:42.081Z,42.07
2017-01-09T04:36:42.116Z,41.88
2017-01-09T04:37:42.136Z,42.09
2017-01-09T04:38:42.173Z,42.07
2017-01-09T04:39:41.790Z,42.16
2017-01-09T04:40:41.817Z,42.19
2017-01-09T04:41:42.242Z,41.78
2017-01-09T04:42:41.867Z,41.88
2017-01-09T04:43:41.896Z,41.68
2017-01-09T04:44:41.936Z,41.78
2017-01-09T04:45:41.951Z,41.97
2017-01-09T04:46:41.981Z,41.59
2017-01-09T04:47:42.398Z,41.88
2017-01-09T04:48:42.031Z,41.61
2017-01-09T04:49:42.056Z,41.39
2017-01-09T04:50:42.489Z,41.59
2017-01-09T04:51:42.510Z,41.49
2017-01-09T04:52:42.134Z,41.49
2017-01-09T04:53:42.164Z,41.49
2017-01-09T04:54:42.598Z,41.3
2017-01-09T04:55:42.617Z,41.3
2017-01-09T04:56:42.255Z,41.61
2017-01-09T04:57:42.666Z,41.59
2017-01-09T04:58:42.302Z,41.68
2017-01-09T04:59:42.724Z,41.51
2017-01-09T05:00:42.756Z,41.01
2017-01-09T05:01:42.373Z,41.3
2017-01-09T05:02:42.410Z,41.01
2017-01-09T05:03:42.825Z,41.01
2017-01-09T05:04:42.460Z,41.11
2017-01-09T05:05:42.489Z,41.2
2017-01-09T05:06:42.909Z,41.01
2017-01-09T05:07:42.535Z,41.2
2017-01-09T05:08:42.566Z,41.2
2017-01-09T05:09:42.595Z,41.2
2017-01-09T05:10:42.624Z,41.39
2017-01-09T05:11:43.045Z,41.2
2017-01-09T05:12:43.070Z,41.39
2017-01-09T05:13:42.707Z,41.3
2017-01-09T05:14:42.731Z,41.11
2017-01-09T05:15:43.148Z,41.2
2017-01-09T05:16:42.796Z,41.11
2017-01-09T05:17:43.209Z,41.49
2017-01-09T05:18:42.854Z,41.3
2017-01-09T05:19:43.251Z,41.32
2017-01-09T05:20:42.887Z,41.11
2017-01-09T05:21:43.308Z,40.81
2017-01-09T05:22:43.343Z,40.81
2017-01-09T05:23:43.362Z,41.11
2017-01-09T05:24:43.391Z,41.2
2017-01-09T05:25:43.019Z,41.3
2017-01-09T05:26:43.052Z,41.2
2017-01-09T05:27:43.469Z,41.01
2017-01-09T05:28:43.504Z,41.2
2017-01-09T05:29:43.522Z,41.3
2017-01-09T05:30:43.563Z,41.3
2017-01-09T05:31:43.579Z,41.49
2017-01-09T05:32:43.608Z,41.3
2017-01-09T05:33:43.233Z,41.39
2017-01-09T05:34:43.258Z,41.39
2017-01-09T05:35:43.283Z,41.39
2017-01-09T05:36:43.711Z,41.22
2017-01-09T05:37:43.732Z,41.2
2017-01-09T05:38:43.765Z,41.2
2017-01-09T05:39:43.794Z,41.11
2017-01-09T05:40:43.424Z,41.51
2017-01-09T05:41:43.852Z,41.49
2017-01-09T05:42:43.476Z,41.49
2017-01-09T05:43:43.897Z,40.72
2017-01-09T05:44:43.921Z,40.81
2017-01-09T05:45:43.554Z,41.2
2017-01-09T05:46:43.583Z,40.84
2017-01-09T05:47:43.608Z,40.84
2017-01-09T05:48:43.642Z,40.45
2017-01-09T05:49:43.660Z,40.64
2017-01-09T05:50:44.082Z,40.74
2017-01-09T05:51:44.106Z,40.63
2017-01-09T05:52:43.743Z,40.84
2017-01-09T05:53:43.767Z,40.84
2017-01-09T05:54:43.797Z,40.55
2017-01-09T05:55:43.823Z,40.55
2017-01-09T05:56:43.862Z,40.84
2017-01-09T05:57:43.875Z,40.84
2017-01-09T05:58:44.298Z,41.01
2017-01-09T05:59:44.325Z,40.84
2017-01-09T06:00:44.361Z,40.84
2017-01-09T06:01:44.382Z,40.94
2017-01-09T06:02:44.398Z,40.63
2017-01-09T06:03:44.039Z,40.84
2017-01-09T06:04:44.064Z,41.03
2017-01-09T06:05:44.484Z,40.64
2017-01-09T06:06:44.117Z,40.64
2017-01-09T06:07:44.538Z,40.94
2017-01-09T06:08:44.567Z,40.74
2017-01-09T06:09:44.596Z,40.94
2017-01-09T06:10:44.225Z,41.13
2017-01-09T06:11:44.253Z,40.74
2017-01-09T06:12:44.674Z,41.13
2017-01-09T06:13:44.299Z,40.74
2017-01-09T06:14:44.332Z,40.74
2017-01-09T06:15:44.356Z,40.64
2017-01-09T06:16:44.777Z,40.45
2017-01-09T06:17:44.806Z,40.45
2017-01-09T06:18:44.836Z,40.45
2017-01-09T06:19:44.463Z,40.94
2017-01-09T06:20:44.888Z,40.74
2017-01-09T06:21:44.937Z,40.94
2017-01-09T06:22:44.549Z,40.84
2017-01-09T06:23:44.574Z,40.84
2017-01-09T06:24:44.599Z,40.64
2017-01-09T06:25:44.625Z,41.22
2017-01-09T06:26:45.060Z,41.22
2017-01-09T06:27:45.073Z,41.32
2017-01-09T06:28:45.113Z,41.61
2017-01-09T06:29:44.730Z,41.51
2017-01-09T06:30:44.758Z,41.89
2017-01-09T06:31:44.784Z,41.89
2017-01-09T06:32:45.221Z,41.99
2017-01-09T06:33:45.233Z,41.99
2017-01-09T06:34:45.278Z,41.99
2017-01-09T06:35:44.891Z,42.09
2017-01-09T06:36:44.920Z,41.89
2017-01-09T06:37:44.948Z,41.89
2017-01-09T06:38:45.369Z,42.28
2017-01-09T06:39:45.001Z,42.38
2017-01-09T06:40:45.432Z,42.28
2017-01-09T06:41:45.451Z,42.28
2017-01-09T06:42:45.092Z,42.67
2017-01-09T06:43:45.504Z,42.76
2017-01-09T06:44:45.145Z,43.05
2017-01-09T06:45:45.558Z,43.34
2017-01-09T06:46:45.590Z,42.96
2017-01-09T06:47:45.610Z,42.86
2017-01-09T06:48:45.252Z,43.15
2017-01-09T06:49:45.665Z,43.05
2017-01-09T06:50:45.298Z,42.96
2017-01-09T06:51:45.318Z,42.96
2017-01-09T06:52:45.340Z,42.67
2017-01-09T06:53:45.780Z,43.54
2017-01-09T06:54:45.405Z,42.86
2017-01-09T06:55:45.825Z,42.67
2017-01-09T06:56:45.466Z,42.76
2017-01-09T06:57:45.881Z,42.57
2017-01-09T06:58:45.898Z,43.05
2017-01-09T06:59:45.932Z,42.86
2017-01-09T07:00:45.568Z,43.05
2017-01-09T07:01:45.589Z,43.15
2017-01-09T07:02:45.634Z,42.96
2017-01-09T07:03:45.643Z,42.96
2017-01-09T07:04:46.063Z,43.05
2017-01-09T07:05:46.088Z,43.15
2017-01-09T07:06:46.122Z,43.24
2017-01-09T07:07:46.145Z,43.24
2017-01-09T07:08:45.791Z,43.05
2017-01-09T07:09:46.199Z,42.96
2017-01-09T07:10:45.831Z,42.96
2017-01-09T07:11:45.856Z,42.96
2017-01-09T07:12:45.893Z,43.15
2017-01-09T07:13:46.303Z,42.96
2017-01-09T07:14:46.335Z,42.57
2017-01-09T07:15:46.360Z,43.15
2017-01-09T07:16:46.392Z,43.54
2017-01-09T07:17:46.412Z,43.54
2017-01-09T07:18:46.057Z,42.86
2017-01-09T07:19:46.066Z,42.84
2017-01-09T07:20:46.103Z,42.76
2017-01-09T07:21:46.127Z,42.86
2017-01-09T07:22:46.560Z,42.76
2017-01-09T07:23:46.177Z,42.96
2017-01-09T07:24:46.206Z,43.05
2017-01-09T07:25:46.626Z,43.05
2017-01-09T07:26:46.255Z,42.96
2017-01-09T07:27:46.287Z,42.86
2017-01-09T07:28:46.312Z,43.03
2017-01-09T07:29:46.362Z,43.03
2017-01-09T07:30:46.365Z,42.57
2017-01-09T07:31:46.786Z,42.93
2017-01-09T07:32:46.419Z,43.03
2017-01-09T07:33:46.843Z,43.03
2017-01-09T07:34:46.870Z,43.03
2017-01-09T07:35:46.893Z,43.13
2017-01-09T07:36:46.521Z,42.93
2017-01-09T07:37:46.946Z,43.03
2017-01-09T07:38:46.579Z,42.93
2017-01-09T07:39:47.000Z,42.86
2017-01-09T07:40:46.644Z,42.96
2017-01-09T07:41:46.665Z,43.13
2017-01-09T07:42:46.699Z,43.15
2017-01-09T07:43:47.120Z,43.05
2017-01-09T07:44:46.739Z,42.47
2017-01-09T07:45:46.764Z,43.15
2017-01-09T07:46:46.793Z,43.15
2017-01-09T07:47:46.822Z,43.34
2017-01-09T07:48:47.242Z,43.24
2017-01-09T07:49:47.267Z,43.15
2017-01-09T07:50:46.915Z,42.67
2017-01-09T07:51:46.934Z,43.24
2017-01-09T07:52:47.353Z,42.67
2017-01-09T07:53:46.982Z,43.24
2017-01-09T07:54:47.007Z,42.46
2017-01-09T07:55:47.428Z,42.67
2017-01-09T07:56:47.053Z,42.76
2017-01-09T07:57:47.088Z,42.67
2017-01-09T07:58:47.113Z,42.26
2017-01-09T07:59:47.142Z,42.67
2017-01-09T08:00:47.567Z,42.57
2017-01-09T08:01:47.596Z,42.57
2017-01-09T08:02:47.628Z,42.65
2017-01-09T08:03:47.249Z,42.47
2017-01-09T08:04:47.674Z,42.47
2017-01-09T08:05:47.302Z,42.67
2017-01-09T08:06:47.727Z,42.47
2017-01-09T08:07:47.356Z,42.38
2017-01-09T08:08:47.385Z,42.55
2017-01-09T08:09:47.429Z,42.47
2017-01-09T08:10:47.438Z,42.28
2017-01-09T08:11:47.855Z,42.38
2017-01-09T08:12:47.496Z,42.57
2017-01-09T08:13:47.912Z,42.28
2017-01-09T08:14:47.944Z,42.38
2017-01-09T08:15:47.970Z,42.28
2017-01-09T08:16:47.598Z,42.47
2017-01-09T08:17:47.618Z,42.47
2017-01-09T08:18:47.651Z,42.09
2017-01-09T08:19:48.077Z,42.47
2017-01-09T08:20:48.097Z,42.19
2017-01-09T08:21:48.127Z,41.99
2017-01-09T08:22:47.761Z,42.09
2017-01-09T08:23:48.184Z,42.28
2017-01-09T08:24:48.208Z,42.19
2017-01-09T08:25:48.232Z,42.19
2017-01-09T08:26:47.861Z,42.09
2017-01-09T08:27:47.886Z,42.57
2017-01-09T08:28:47.918Z,42.47
2017-01-09T08:29:47.943Z,42.28
2017-01-09T08:30:47.972Z,42.38
2017-01-09T08:31:48.397Z,42.19
2017-01-09T08:32:48.413Z,42.38
2017-01-09T08:33:48.054Z,42.47
2017-01-09T08:34:48.481Z,42.09
2017-01-09T08:35:48.495Z,42.38
2017-01-09T08:36:48.532Z,42.38
2017-01-09T08:37:48.157Z,42.38
2017-01-09T08:38:48.185Z,42.28
2017-01-09T08:39:48.207Z,42.19
2017-01-09T08:40:48.651Z,42.19
2017-01-09T08:41:48.660Z,42.19
2017-01-09T08:42:48.684Z,42.28
2017-01-09T08:43:48.317Z,42.28
2017-01-09T08:44:48.742Z,42.19
2017-01-09T08:45:48.766Z,42.28
2017-01-09T08:46:48.412Z,42.28
2017-01-09T08:47:48.424Z,42.19
2017-01-09T08:48:48.445Z,42.09
2017-01-09T08:49:48.488Z,42.19
2017-01-09T08:50:48.902Z,41.99
2017-01-09T08:51:48.534Z,42.19
2017-01-09T08:52:48.956Z,42.19
2017-01-09T08:53:48.589Z,42.28
2017-01-09T08:54:48.617Z,42.28
2017-01-09T08:55:49.050Z,42.28
2017-01-09T08:56:49.095Z,42.38
2017-01-09T08:57:48.695Z,41.99
2017-01-09T08:58:48.732Z,42.28
2017-01-09T08:59:49.149Z,41.71
2017-01-09T09:00:49.182Z,42.47
2017-01-09T09:01:48.802Z,42.47
2017-01-09T09:02:48.835Z,42.47
2017-01-09T09:03:49.248Z,42.47
2017-01-09T09:04:49.281Z,41.8
2017-01-09T09:05:48.910Z,41.99
2017-01-09T09:06:49.328Z,41.99
2017-01-09T09:07:49.367Z,41.99
2017-01-09T09:08:49.379Z,41.99
2017-01-09T09:09:49.412Z,41.71
2017-01-09T09:10:49.057Z,42.47
2017-01-09T09:11:49.466Z,41.89
2017-01-09T09:12:49.495Z,42.47
2017-01-09T09:13:49.519Z,42.19
2017-01-09T09:14:49.547Z,41.71
2017-01-09T09:15:49.176Z,41.71
2017-01-09T09:16:49.597Z,41.71
2017-01-09T09:17:49.620Z,41.99
2017-01-09T09:18:49.266Z,41.71
2017-01-09T09:19:49.280Z,41.61
2017-01-09T09:20:49.708Z,41.71
2017-01-09T09:21:49.338Z,41.61
2017-01-09T09:22:49.762Z,41.99
2017-01-09T09:23:49.808Z,42.19
2017-01-09T09:24:49.419Z,42.19
2017-01-09T09:25:49.440Z,42.09
2017-01-09T09:26:49.873Z,42.19
2017-01-09T09:27:49.902Z,41.89
2017-01-09T09:28:49.929Z,41.99
2017-01-09T09:29:49.948Z,42.09
2017-01-09T09:30:49.580Z,41.99
2017-01-09T09:31:50.005Z,41.99
2017-01-09T09:32:50.042Z,41.89
2017-01-09T09:33:50.059Z,41.89
2017-01-09T09:34:49.682Z,41.99
2017-01-09T09:35:49.715Z,42.09
2017-01-09T09:36:50.140Z,42.19
2017-01-09T09:37:50.161Z,42.09
2017-01-09T09:38:49.806Z,42.09
2017-01-09T09:39:49.819Z,41.99
2017-01-09T09:40:50.243Z,41.99
2017-01-09T09:41:49.864Z,41.99
2017-01-09T09:42:49.901Z,41.99
2017-01-09T09:43:50.325Z,41.61
2017-01-09T09:44:50.362Z,41.99
2017-01-09T09:45:49.983Z,42.19
2017-01-09T09:46:50.408Z,41.61
2017-01-09T09:47:50.041Z,41.51
2017-01-09T09:48:50.077Z,42.09
2017-01-09T09:49:50.089Z,41.8
2017-01-09T09:50:50.114Z,41.89
2017-01-09T09:51:50.544Z,41.89
2017-01-09T09:52:50.564Z,41.51
2017-01-09T09:53:50.197Z,41.41
2017-01-09T09:54:50.633Z,41.89
2017-01-09T09:55:50.646Z,41.41
2017-01-09T09:56:50.287Z,41.8
2017-01-09T09:57:50.312Z,41.61
2017-01-09T09:58:50.732Z,41.41
2017-01-09T09:59:50.356Z,41.41
2017-01-09T10:00:50.783Z,41.41
2017-01-09T10:01:50.811Z,41.41
2017-01-09T10:02:50.835Z,41.71
2017-01-09T10:03:50.864Z,41.61
2017-01-09T10:04:50.497Z,41.61
2017-01-09T10:05:50.922Z,41.51
2017-01-09T10:06:50.545Z,41.41
2017-01-09T10:07:50.972Z,41.41
2017-01-09T10:08:51.000Z,41.32
2017-01-09T10:09:51.025Z,41.61
2017-01-09T10:10:51.062Z,41.61
2017-01-09T10:11:50.686Z,41.8
2017-01-09T10:12:50.707Z,41.51
2017-01-09T10:13:51.136Z,41.51
2017-01-09T10:14:50.761Z,41.51
2017-01-09T10:15:51.190Z,41.03
2017-01-09T10:16:51.218Z,41.41
2017-01-09T10:17:50.847Z,41.22
2017-01-09T10:18:51.266Z,41.03
2017-01-09T10:19:51.297Z,41.41
2017-01-09T10:20:50.926Z,41.41
2017-01-09T10:21:50.946Z,41.32
2017-01-09T10:22:50.978Z,41.13
2017-01-09T10:23:51.401Z,41.41
2017-01-09T10:24:51.428Z,41.51
2017-01-09T10:25:51.059Z,41.41
2017-01-09T10:26:51.086Z,41.32
2017-01-09T10:27:51.506Z,41.41
2017-01-09T10:28:51.539Z,41.41
2017-01-09T10:29:51.164Z,41.32
2017-01-09T10:30:51.588Z,41.32
2017-01-09T10:31:51.217Z,41.32
2017-01-09T10:32:51.642Z,41.32
2017-01-09T10:33:51.282Z,41.32
2017-01-09T10:34:51.699Z,41.32
2017-01-09T10:35:51.728Z,41.32
2017-01-09T10:36:51.354Z,41.22
2017-01-09T10:37:51.382Z,41.32
2017-01-09T10:38:51.807Z,41.22
2017-01-09T10:39:51.836Z,41.22
2017-01-09T10:40:51.860Z,41.03
2017-01-09T10:41:51.889Z,41.51
2017-01-09T10:42:51.922Z,41.22
2017-01-09T10:43:51.549Z,41.22
2017-01-09T10:44:51.971Z,41.22
2017-01-09T10:45:51.992Z,41.03
2017-01-09T10:46:52.025Z,41.22
2017-01-09T10:47:52.051Z,41.22
2017-01-09T10:48:52.078Z,41.22
2017-01-09T10:49:52.103Z,41.22
2017-01-09T10:50:52.135Z,41.41
2017-01-09T10:51:51.757Z,41.32
2017-01-09T10:52:51.781Z,41.41
2017-01-09T10:53:51.818Z,41.41
2017-01-09T10:54:51.839Z,41.32
2017-01-09T10:55:52.268Z,41.32
2017-01-09T10:56:51.895Z,41.41
2017-01-09T10:57:51.921Z,41.32
2017-01-09T10:58:51.950Z,41.22
2017-01-09T10:59:52.378Z,41.32
2017-01-09T11:00:51.998Z,41.41
2017-01-09T11:01:52.424Z,41.32
2017-01-09T11:02:52.057Z,41.22
2017-01-09T11:03:52.481Z,41.41
2017-01-09T11:04:52.111Z,41.13
2017-01-09T11:05:52.135Z,41.61
2017-01-09T11:06:52.166Z,41.51
2017-01-09T11:07:52.189Z,41.51
2017-01-09T11:08:52.610Z,41.51
2017-01-09T11:09:52.638Z,41.61
2017-01-09T11:10:52.671Z,40.84
2017-01-09T11:11:52.308Z,41.32
2017-01-09T11:12:52.329Z,41.03
2017-01-09T11:13:52.748Z,40.74
2017-01-09T11:14:52.778Z,40.74
2017-01-09T11:15:52.411Z,40.84
2017-01-09T11:16:52.435Z,40.64
2017-01-09T11:17:52.857Z,40.64
2017-01-09T11:18:52.494Z,40.94
2017-01-09T11:19:52.914Z,40.84
2017-01-09T11:20:52.545Z,40.55
2017-01-09T11:21:52.563Z,40.84
2017-01-09T11:22:52.594Z,40.64
2017-01-09T11:23:53.025Z,40.64
2017-01-09T11:24:53.041Z,40.84
2017-01-09T11:25:52.675Z,40.84
2017-01-09T11:26:53.099Z,40.74
2017-01-09T11:27:52.732Z,40.64
2017-01-09T11:28:53.152Z,40.64
2017-01-09T11:29:53.185Z,40.94
2017-01-09T11:30:52.817Z,40.64
2017-01-09T11:31:53.239Z,40.64
2017-01-09T11:32:52.864Z,40.84
2017-01-09T11:33:52.896Z,40.64
2017-01-09T11:34:52.925Z,40.84
2017-01-09T11:35:53.342Z,40.74
2017-01-09T11:36:52.971Z,40.84
2017-01-09T11:37:53.007Z,40.55
2017-01-09T11:38:53.424Z,40.64
2017-01-09T11:39:53.449Z,40.84
2017-01-09T11:40:53.481Z,40.64
2017-01-09T11:41:53.114Z,40.55
2017-01-09T11:42:53.135Z,40.55
2017-01-09T11:43:53.560Z,40.55
2017-01-09T11:44:53.192Z,40.55
2017-01-09T11:45:53.218Z,40.94
2017-01-09T11:46:53.246Z,41.03
2017-01-09T11:47:53.663Z,41.03
2017-01-09T11:48:53.695Z,41.13
2017-01-09T11:49:53.316Z,40.94
2017-01-09T11:50:53.348Z,40.94
2017-01-09T11:51:53.382Z,41.03
2017-01-09T11:52:53.406Z,40.94
2017-01-09T11:53:53.429Z,41.03
2017-01-09T11:54:53.455Z,40.74
2017-01-09T11:55:53.876Z,40.84
2017-01-09T11:56:53.908Z,41.03
2017-01-09T11:57:53.537Z,40.64
2017-01-09T11:58:53.957Z,40.64
2017-01-09T11:59:53.590Z,40.64
2017-01-09T12:00:53.618Z,40.94
2017-01-09T12:01:53.642Z,40.55
2017-01-09T12:02:54.068Z,40.45
2017-01-09T12:03:53.694Z,40.84
2017-01-09T12:04:53.729Z,40.64
2017-01-09T12:05:54.145Z,40.45
2017-01-09T12:06:54.178Z,40.64
2017-01-09T12:07:54.203Z,40.55
2017-01-09T12:08:54.228Z,40.36
2017-01-09T12:09:53.864Z,40.26
2017-01-09T12:10:54.280Z,40.55
2017-01-09T12:11:54.308Z,40.55
2017-01-09T12:12:53.938Z,40.55
2017-01-09T12:13:53.966Z,40.55
2017-01-09T12:14:53.991Z,40.55
2017-01-09T12:15:54.024Z,40.64
2017-01-09T12:16:54.045Z,40.55
2017-01-09T12:17:54.473Z,40.64
2017-01-09T12:18:54.497Z,40.74
2017-01-09T12:19:54.130Z,40.64
2017-01-09T12:20:54.555Z,40.55
2017-01-09T12:21:54.176Z,40.74
2017-01-09T12:22:54.212Z,40.64
2017-01-09T12:23:54.633Z,40.64
2017-01-09T12:24:54.266Z,40.64
2017-01-09T12:25:54.290Z,40.64
2017-01-09T12:26:54.315Z,40.84
2017-01-09T12:27:54.348Z,40.74
2017-01-09T12:28:54.776Z,40.64
2017-01-09T12:29:54.797Z,40.74
2017-01-09T12:30:54.818Z,40.64
2017-01-09T12:31:54.459Z,40.84
2017-01-09T12:32:54.880Z,40.74
2017-01-09T12:33:54.906Z,40.64
2017-01-09T12:34:54.931Z,40.74
2017-01-09T12:35:54.556Z,40.55
2017-01-09T12:36:54.590Z,40.55
2017-01-09T12:37:55.014Z,40.76
2017-01-09T12:38:55.039Z,40.74
2017-01-09T12:39:55.063Z,40.55
2017-01-09T12:40:54.693Z,40.55
2017-01-09T12:41:54.714Z,40.45
2017-01-09T12:42:54.742Z,40.45
2017-01-09T12:43:54.775Z,39.87
2017-01-09T12:44:55.195Z,40.26
2017-01-09T12:45:54.829Z,40.19
2017-01-09T12:46:54.857Z,39.97
2017-01-09T12:47:54.886Z,40.55
2017-01-09T12:48:54.906Z,39.97
2017-01-09T12:49:55.333Z,40.07
2017-01-09T12:50:54.968Z,40.07
2017-01-09T12:51:54.993Z,40.36
2017-01-09T12:52:55.020Z,39.97
2017-01-09T12:53:55.049Z,40.26
2017-01-09T12:54:55.071Z,40.36